Time;durP1;ratioP1;P1;durP2;ratioP2;P2;SDS_P1;SDS_P2;PMS_P1;PMS_P2;Temp;Humidity;BMP_temperature;BMP_pressure;BME280_temperature;BME280_humidity;BME280_pressure;Samples;Min_cycle;Max_cycle;Signal;HPM_P1;HPM_P2
2024/01/23 00:01:21;;;;;;;28.77;5.27;;;9.40;87.00;;;;;;792189;179;26461;-78
2024/01/23 00:03:48;;;;;;;21.43;3.73;;;9.50;86.80;;;;;;786601;180;26444;-78
2024/01/23 00:06:14;;;;;;;36.97;5.63;;;9.50;85.70;;;;;;790113;180;28053;-79
2024/01/23 00:08:41;;;;;;;29.50;5.30;;;9.60;86.70;;;;;;786632;178;26513;-78
2024/01/23 00:11:07;;;;;;;41.33;5.70;;;9.50;87.10;;;;;;790754;178;26471;-78
2024/01/23 00:13:34;;;;;;;41.50;7.60;;;9.50;89.10;;;;;;784996;180;26511;-78
2024/01/23 00:16:01;;;;;;;54.27;10.80;;;9.30;91.30;;;;;;785027;180;27016;-78
2024/01/23 00:18:27;;;;;;;45.27;8.87;;;9.00;92.60;;;;;;788548;180;27051;-78
2024/01/23 00:20:54;;;;;;;40.93;7.40;;;8.70;93.00;;;;;;794576;171;26472;-79
2024/01/23 00:23:22;;;;;;;28.13;4.93;;;8.80;92.50;;;;;;800828;177;26451;-80
2024/01/23 00:25:52;;;;;;;45.13;12.10;;;8.70;92.70;;;;;;792707;181;26618;-78
2024/01/23 00:28:33;;;;;;;58.67;14.77;;;8.80;92.60;;;;;;784860;181;26483;-79
2024/01/23 00:31:02;;;;;;;41.27;9.60;;;8.70;92.80;;;;;;790044;180;26483;-79
2024/01/23 00:33:41;;;;;;;31.50;4.70;;;8.90;91.60;;;;;;784735;181;26475;-80
2024/01/23 00:36:18;;;;;;;43.17;6.30;;;8.90;91.40;;;;;;782937;181;26471;-79
2024/01/23 00:38:51;;;;;;;45.30;10.40;;;8.90;91.40;;;;;;785151;179;26494;-79
2024/01/23 00:41:17;;;;;;;30.67;5.80;;;8.90;91.50;;;;;;783698;181;26487;-79
2024/01/23 00:43:48;;;;;;;33.93;5.43;;;8.80;91.70;;;;;;783885;181;26516;-80
2024/01/23 00:46:19;;;;;;;46.37;11.10;;;8.80;91.70;;;;;;781382;182;26438;-80
2024/01/23 00:51:29;;;;;;;39.70;7.33;;;8.80;91.70;;;;;;799342;174;26545;-80
2024/01/23 00:53:58;;;;;;;32.50;5.67;;;8.90;91.20;;;;;;795009;179;26445;-79
2024/01/23 00:56:42;;;;;;;42.60;9.67;;;8.80;92.00;;;;;;787120;180;26452;-79
2024/01/23 00:59:12;;;;;;;43.87;7.17;;;8.80;92.20;;;;;;800039;179;26442;-79
2024/01/23 01:01:39;;;;;;;38.03;8.40;;;8.70;93.40;;;;;;789923;179;27030;-80
2024/01/23 01:04:15;;;;;;;38.47;6.80;;;8.60;92.70;;;;;;785753;182;26626;-81
2024/01/23 01:06:44;;;;;;;33.30;6.20;;;8.60;93.00;;;;;;785564;180;26451;-81
2024/01/23 01:09:22;;;;;;;;;;;;;;;;;;;;;
2024/01/23 01:11:48;;;;;;;43.13;9.67;;;8.50;93.90;;;;;;786625;180;26497;-79
2024/01/23 01:14:19;;;;;;;37.93;6.27;;;8.50;93.20;;;;;;784009;182;26483;-80
2024/01/23 01:16:46;;;;;;;20.77;4.10;;;8.50;93.30;;;;;;768917;186;26479;-80
2024/01/23 01:19:12;;;;;;;36.13;5.50;;;8.40;93.10;;;;;;779734;183;27045;-80
2024/01/23 01:21:39;;;;;;;33.53;6.00;;;8.50;93.00;;;;;;780525;183;26490;-78
2024/01/23 01:24:06;;;;;;;29.70;4.77;;;8.50;93.20;;;;;;780180;183;26511;-79
2024/01/23 01:26:32;;;;;;;40.20;8.00;;;8.50;93.00;;;;;;780394;183;26495;-80
2024/01/23 01:28:59;;;;;;;36.03;5.00;;;8.50;93.50;;;;;;780923;180;26479;-80
2024/01/23 01:31:25;;;;;;;33.57;5.67;;;8.40;93.40;;;;;;780795;183;26494;-79
2024/01/23 01:33:52;;;;;;;33.53;6.47;;;8.40;93.20;;;;;;781261;180;28922;-80
2024/01/23 01:36:18;;;;;;;37.63;6.00;;;8.40;93.20;;;;;;779346;183;26482;-80
2024/01/23 01:38:45;;;;;;;40.40;5.73;;;8.40;93.80;;;;;;780643;180;27033;-80
2024/01/23 01:41:12;;;;;;;37.07;5.50;;;8.30;93.80;;;;;;780645;180;26506;-79
2024/01/23 01:43:38;;;;;;;19.87;4.47;;;8.30;93.90;;;;;;784511;181;26540;-78
2024/01/23 01:46:10;;;;;;;19.63;3.83;;;8.30;93.10;;;;;;783853;182;26453;-80
2024/01/23 01:48:35;;;;;;;32.27;4.57;;;8.40;93.30;;;;;;785850;182;26462;-79
2024/01/23 01:51:02;;;;;;;38.00;5.57;;;8.20;94.40;;;;;;787030;179;26482;-80
2024/01/23 01:53:28;;;;;;;41.20;6.10;;;8.00;95.20;;;;;;785837;181;26533;-80
2024/01/23 01:55:55;;;;;;;29.70;4.47;;;7.90;96.40;;;;;;785589;182;26460;-79
2024/01/23 01:58:21;;;;;;;21.17;4.07;;;7.80;96.40;;;;;;784791;182;26452;-82
2024/01/23 02:00:50;;;;;;;34.90;5.20;;;7.80;96.30;;;;;;782755;183;26481;-78
2024/01/23 02:03:17;;;;;;;36.23;5.33;;;7.70;96.10;;;;;;782839;183;28912;-79
2024/01/23 02:05:41;;;;;;;47.77;8.20;;;7.30;97.50;;;;;;783367;183;26471;-78
2024/01/23 02:08:08;;;;;;;50.87;6.90;;;7.20;98.30;;;;;;782477;180;26490;-81
2024/01/23 02:10:35;;;;;;;51.63;6.43;;;7.10;99.10;;;;;;780182;184;26599;-79
2024/01/23 02:13:01;;;;;;;56.43;6.93;;;7.10;99.30;;;;;;781835;183;26554;-80
2024/01/23 02:15:30;;;;;;;43.40;6.70;;;7.10;99.50;;;;;;764364;187;27055;-80
2024/01/23 02:17:57;;;;;;;49.33;7.80;;;7.10;99.30;;;;;;784933;182;26467;-79
2024/01/23 02:20:24;;;;;;;57.93;8.00;;;7.10;99.90;;;;;;786023;179;26466;-79
2024/01/23 02:22:51;;;;;;;46.47;6.87;;;7.10;99.90;;;;;;783546;180;26484;-80
2024/01/23 02:25:17;;;;;;;50.53;7.80;;;7.00;99.90;;;;;;782495;182;26489;-80
2024/01/23 02:27:44;;;;;;;41.43;6.30;;;7.00;99.90;;;;;;783474;183;26452;-79
2024/01/23 02:30:11;;;;;;;56.47;8.53;;;7.00;99.90;;;;;;784704;180;26460;-80
2024/01/23 02:32:38;;;;;;;52.87;8.73;;;7.00;99.90;;;;;;783891;180;26467;-80
2024/01/23 02:35:05;;;;;;;45.37;8.20;;;7.00;99.90;;;;;;784230;180;27036;-82
2024/01/23 02:37:31;;;;;;;31.93;6.90;;;7.00;99.90;;;;;;785466;177;26432;-82
2024/01/23 02:39:58;;;;;;;33.60;6.30;;;7.00;99.90;;;;;;788914;174;26465;-79
2024/01/23 02:42:24;;;;;;;36.87;5.67;;;7.30;99.40;;;;;;773575;177;26478;-80
2024/01/23 02:44:51;;;;;;;44.00;6.07;;;7.30;97.80;;;;;;774073;178;26480;-79
2024/01/23 02:47:18;;;;;;;36.30;6.00;;;7.30;98.00;;;;;;775962;185;26520;-79
2024/01/23 02:49:44;;;;;;;27.77;4.90;;;7.40;96.70;;;;;;773215;181;26477;-79
2024/01/23 02:52:11;;;;;;;30.73;5.43;;;7.40;95.70;;;;;;776400;184;26506;-80
2024/01/23 02:54:37;;;;;;;38.37;5.90;;;7.40;96.20;;;;;;778038;185;26502;-79
2024/01/23 02:57:04;;;;;;;29.73;7.40;;;7.30;95.90;;;;;;778371;182;26475;-76
2024/01/23 02:59:31;;;;;;;33.50;5.53;;;7.40;95.00;;;;;;782196;183;26518;-79
2024/01/23 03:01:57;;;;;;;41.47;5.80;;;7.40;95.50;;;;;;788205;181;26464;-79
2024/01/23 03:04:24;;;;;;;30.07;5.63;;;7.30;95.60;;;;;;788532;182;26449;-79
2024/01/23 03:06:50;;;;;;;35.53;5.90;;;7.40;95.70;;;;;;789277;182;26453;-79
2024/01/23 03:09:17;;;;;;;36.00;6.47;;;7.50;94.30;;;;;;773568;183;26464;-79
2024/01/23 03:11:44;;;;;;;29.17;5.27;;;7.40;94.60;;;;;;780241;183;26491;-79
2024/01/23 03:14:11;;;;;;;32.90;5.20;;;7.40;94.50;;;;;;775490;183;26515;-80
2024/01/23 03:16:37;;;;;;;27.70;4.47;;;7.50;94.50;;;;;;785058;183;26468;-76
2024/01/23 03:19:03;;;;;;;22.10;5.70;;;7.50;95.00;;;;;;783814;183;26465;-80
2024/01/23 03:21:30;;;;;;;41.40;8.27;;;7.70;93.30;;;;;;778305;183;26510;-80
2024/01/23 03:23:58;;;;;;;33.60;5.47;;;7.70;94.30;;;;;;779707;179;26495;-80
2024/01/23 03:26:23;;;;;;;28.30;4.63;;;7.70;93.40;;;;;;779088;179;26466;-80
2024/01/23 03:28:50;;;;;;;29.83;5.67;;;7.70;93.80;;;;;;779469;184;27050;-79
2024/01/23 03:31:16;;;;;;;37.23;7.80;;;7.70;94.10;;;;;;781715;182;26505;-79
2024/01/23 03:33:43;;;;;;;20.87;4.60;;;7.70;93.90;;;;;;781661;183;26502;-79
2024/01/23 03:36:10;;;;;;;33.10;5.50;;;7.70;93.40;;;;;;778360;183;26483;-78
2024/01/23 03:38:36;;;;;;;31.43;5.43;;;7.70;93.90;;;;;;782848;184;27022;-78
2024/01/23 03:41:03;;;;;;;23.60;4.53;;;7.70;93.80;;;;;;779654;183;26509;-78
2024/01/23 03:43:29;;;;;;;27.03;4.77;;;7.80;93.50;;;;;;778051;183;26492;-78
2024/01/23 03:45:56;;;;;;;32.27;5.30;;;7.90;93.70;;;;;;764156;187;26547;-78
2024/01/23 03:48:23;;;;;;;32.33;4.97;;;7.80;93.60;;;;;;782322;181;26454;-79
2024/01/23 03:50:49;;;;;;;40.90;6.30;;;7.90;93.10;;;;;;783110;183;26502;-79
2024/01/23 03:53:16;;;;;;;37.70;6.33;;;7.90;93.80;;;;;;780723;184;26503;-80
2024/01/23 03:55:42;;;;;;;28.27;4.70;;;7.90;93.20;;;;;;779148;184;26484;-76
2024/01/23 03:58:09;;;;;;;30.93;5.33;;;7.90;93.40;;;;;;781279;183;26466;-77
2024/01/23 04:00:36;;;;;;;33.10;5.23;;;7.80;93.70;;;;;;783125;183;26507;-78
2024/01/23 04:03:03;;;;;;;36.07;7.43;;;7.90;93.20;;;;;;778097;180;26474;-80
2024/01/23 04:05:29;;;;;;;30.20;5.40;;;7.80;93.60;;;;;;781071;183;27060;-79
2024/01/23 04:07:56;;;;;;;30.17;6.50;;;7.80;93.40;;;;;;780903;183;26461;-79
2024/01/23 04:10:22;;;;;;;43.77;6.17;;;7.80;93.00;;;;;;779171;183;27034;-79
2024/01/23 04:12:49;;;;;;;30.57;5.57;;;7.70;93.60;;;;;;779820;180;26465;-78
2024/01/23 04:15:15;;;;;;;18.87;6.17;;;7.60;94.30;;;;;;783566;183;26487;-79
2024/01/23 04:17:42;;;;;;;40.27;5.73;;;7.80;92.90;;;;;;782028;183;26641;-78
2024/01/23 04:20:09;;;;;;;36.33;6.80;;;7.80;93.20;;;;;;788356;182;26471;-79
2024/01/23 04:22:36;;;;;;;31.20;5.70;;;7.70;93.80;;;;;;784841;182;27029;-79
2024/01/23 04:25:02;;;;;;;36.87;6.77;;;7.80;93.10;;;;;;782184;182;26523;-78
2024/01/23 04:27:30;;;;;;;36.17;5.30;;;7.70;93.30;;;;;;782319;181;26470;-79
2024/01/23 04:29:55;;;;;;;26.07;5.00;;;7.70;92.80;;;;;;780320;182;26490;-80
2024/01/23 04:32:22;;;;;;;40.37;5.90;;;7.70;92.80;;;;;;767656;187;26486;-80
2024/01/23 04:34:49;;;;;;;32.97;4.90;;;7.70;93.30;;;;;;771354;183;26508;-80
2024/01/23 04:37:15;;;;;;;29.50;5.53;;;7.70;93.00;;;;;;777087;185;26472;-80
2024/01/23 04:39:42;;;;;;;30.10;4.30;;;7.70;93.00;;;;;;777989;182;26438;-79
2024/01/23 04:42:09;;;;;;;35.77;4.80;;;7.70;92.90;;;;;;780544;184;26490;-80
2024/01/23 04:44:35;;;;;;;31.70;5.30;;;7.70;92.90;;;;;;777101;184;26466;-79
2024/01/23 04:47:02;;;;;;;45.03;8.00;;;7.60;93.20;;;;;;778973;183;26503;-80
2024/01/23 04:49:29;;;;;;;34.20;6.03;;;7.50;93.50;;;;;;781239;180;26474;-80
2024/01/23 04:51:55;;;;;;;33.23;5.93;;;7.60;93.20;;;;;;780211;180;26727;-77
2024/01/23 04:54:22;;;;;;;33.60;5.40;;;7.60;93.10;;;;;;779466;184;26470;-79
2024/01/23 04:56:48;;;;;;;36.30;5.57;;;7.60;93.40;;;;;;777379;185;27030;-79
2024/01/23 04:59:15;;;;;;;30.27;5.77;;;7.50;93.10;;;;;;756910;187;26532;-79
2024/01/23 05:01:42;;;;;;;39.70;6.43;;;7.40;93.60;;;;;;773853;182;27180;-80
2024/01/23 05:04:08;;;;;;;44.17;7.23;;;7.40;93.80;;;;;;774790;183;26490;-80
2024/01/23 05:06:35;;;;;;;25.80;5.63;;;7.40;93.70;;;;;;772174;179;27113;-79
2024/01/23 05:09:02;;;;;;;36.57;6.03;;;7.40;93.00;;;;;;774819;184;26506;-78
2024/01/23 05:11:28;;;;;;;45.20;7.00;;;7.40;93.20;;;;;;773813;183;26519;-79
2024/01/23 05:13:55;;;;;;;30.17;5.97;;;7.30;93.30;;;;;;781402;180;26474;-79
2024/01/23 05:16:21;;;;;;;36.33;5.33;;;7.30;93.60;;;;;;772890;179;26487;-80
2024/01/23 05:18:48;;;;;;;39.17;6.30;;;7.20;93.70;;;;;;766378;184;26485;-80
2024/01/23 05:21:14;;;;;;;23.77;4.40;;;7.10;93.80;;;;;;778468;183;26489;-79
2024/01/23 05:23:42;;;;;;;44.70;7.67;;;7.10;93.80;;;;;;782286;181;26477;-80
2024/01/23 05:26:08;;;;;;;34.90;5.47;;;7.00;94.30;;;;;;783381;182;26493;-77
2024/01/23 05:28:34;;;;;;;42.37;6.90;;;7.00;94.40;;;;;;784961;181;26437;-79
2024/01/23 05:31:01;;;;;;;35.73;5.27;;;7.00;94.50;;;;;;780347;180;26487;-79
2024/01/23 05:33:27;;;;;;;36.30;5.47;;;7.00;94.70;;;;;;780457;183;26482;-79
2024/01/23 05:35:54;;;;;;;36.50;5.90;;;7.00;94.00;;;;;;780874;183;26485;-79
2024/01/23 05:38:21;;;;;;;31.53;6.37;;;7.00;94.10;;;;;;780232;183;26490;-79
2024/01/23 05:40:47;;;;;;;40.20;5.87;;;6.90;94.20;;;;;;779468;180;26489;-79
2024/01/23 05:43:14;;;;;;;37.13;5.80;;;6.90;94.00;;;;;;764939;186;26475;-79
2024/01/23 05:45:40;;;;;;;32.67;5.90;;;7.00;94.20;;;;;;780937;183;26467;-79
2024/01/23 05:48:07;;;;;;;34.00;4.87;;;7.10;93.40;;;;;;764093;187;26494;-79
2024/01/23 05:50:34;;;;;;;29.70;4.83;;;7.00;93.60;;;;;;767902;184;26518;-77
2024/01/23 05:53:00;;;;;;;32.17;6.03;;;7.00;94.00;;;;;;781049;182;26545;-79
2024/01/23 05:55:27;;;;;;;37.00;5.50;;;6.90;94.30;;;;;;781354;183;26466;-78
2024/01/23 05:57:53;;;;;;;31.43;5.33;;;6.90;94.20;;;;;;786891;182;26600;-80
2024/01/23 06:00:20;;;;;;;36.67;4.27;;;6.90;94.40;;;;;;779239;183;27040;-79
2024/01/23 06:02:47;;;;;;;30.63;5.67;;;6.90;93.80;;;;;;781581;183;26462;-79
2024/01/23 06:05:13;;;;;;;35.33;5.13;;;6.80;94.00;;;;;;781736;183;27055;-78
2024/01/23 06:07:43;;;;;;;37.90;4.77;;;6.80;93.80;;;;;;781690;183;26466;-76
2024/01/23 06:10:07;;;;;;;35.93;5.43;;;6.90;93.90;;;;;;781863;181;26498;-78
2024/01/23 06:12:34;;;;;;;29.93;5.30;;;6.90;94.00;;;;;;783362;183;26493;-80
2024/01/23 06:15:00;;;;;;;29.13;4.57;;;6.90;94.00;;;;;;784358;182;26469;-78
2024/01/23 06:17:27;;;;;;;32.30;4.43;;;7.10;93.50;;;;;;783430;182;26488;-76
2024/01/23 06:19:53;;;;;;;27.13;4.90;;;6.90;93.60;;;;;;783836;182;26458;-78
2024/01/23 06:22:27;;;;;;;23.80;4.27;;;6.90;93.50;;;;;;784710;182;26495;-78
2024/01/23 06:25:01;;;;;;;34.37;5.03;;;6.90;93.20;;;;;;782872;183;26488;-78
2024/01/23 06:27:27;;;;;;;39.83;5.77;;;6.80;93.90;;;;;;781195;182;26457;-78
2024/01/23 06:29:54;;;;;;;32.73;5.27;;;6.80;93.50;;;;;;779835;183;26485;-80
2024/01/23 06:32:21;;;;;;;31.20;5.07;;;6.80;93.50;;;;;;783910;181;26460;-79
2024/01/23 06:34:47;;;;;;;42.27;6.33;;;6.90;93.30;;;;;;785088;182;26489;-80
2024/01/23 06:37:14;;;;;;;29.13;4.40;;;6.80;93.70;;;;;;785083;181;26451;-80
2024/01/23 06:39:40;;;;;;;38.23;5.10;;;6.80;94.00;;;;;;781660;183;26508;-79
2024/01/23 06:42:07;;;;;;;27.80;4.57;;;6.80;93.80;;;;;;780641;183;26481;-79
2024/01/23 06:44:34;;;;;;;25.87;4.10;;;6.80;93.50;;;;;;787131;182;26512;-79
2024/01/23 06:47:00;;;;;;;41.43;6.20;;;6.90;93.10;;;;;;783856;182;26455;-80
2024/01/23 06:49:27;;;;;;;23.07;4.23;;;6.80;93.40;;;;;;780609;183;27016;-78
2024/01/23 06:51:53;;;;;;;19.80;3.63;;;6.80;93.90;;;;;;783938;183;26642;-79
2024/01/23 06:54:20;;;;;;;35.87;6.23;;;6.70;93.70;;;;;;782700;182;27002;-79
2024/01/23 06:56:46;;;;;;;31.77;5.20;;;6.80;93.80;;;;;;781092;183;26481;-79
2024/01/23 06:59:13;;;;;;;36.70;5.87;;;6.80;93.40;;;;;;775909;181;28075;-79
2024/01/23 07:01:40;;;;;;;32.30;4.67;;;6.80;93.60;;;;;;781050;183;26501;-78
2024/01/23 07:04:07;;;;;;;30.97;5.00;;;6.90;93.40;;;;;;782761;183;26545;-79
2024/01/23 07:06:33;;;;;;;35.17;5.80;;;6.80;93.80;;;;;;782633;183;26501;-76
2024/01/23 07:08:59;;;;;;;33.23;5.73;;;6.70;93.70;;;;;;787267;182;26449;-80
2024/01/23 07:11:27;;;;;;;28.97;4.73;;;6.80;93.60;;;;;;782538;182;26519;-80
2024/01/23 07:13:53;;;;;;;40.80;5.83;;;6.80;93.50;;;;;;782257;183;26486;-79
2024/01/23 07:16:19;;;;;;;31.93;5.17;;;6.80;93.50;;;;;;786309;182;26466;-79
2024/01/23 07:18:46;;;;;;;32.60;5.23;;;6.80;93.60;;;;;;783162;180;26445;-81
2024/01/23 07:21:12;;;;;;;28.67;4.93;;;6.70;93.60;;;;;;781072;182;26484;-79
2024/01/23 07:23:39;;;;;;;33.67;5.03;;;6.70;93.90;;;;;;781805;184;26473;-81
2024/01/23 07:26:06;;;;;;;24.63;4.23;;;6.70;93.50;;;;;;789951;182;26481;-80
2024/01/23 07:28:32;;;;;;;32.20;5.73;;;6.90;93.20;;;;;;785165;182;26441;-79
2024/01/23 07:30:59;;;;;;;35.50;5.27;;;6.80;93.40;;;;;;769098;185;26487;-79
2024/01/23 07:33:27;;;;;;;34.70;5.53;;;6.80;93.10;;;;;;786615;182;27016;-77
2024/01/23 07:35:52;;;;;;;35.60;6.23;;;6.80;93.40;;;;;;784451;182;26472;-80
2024/01/23 07:38:19;;;;;;;31.50;5.27;;;6.80;93.70;;;;;;779688;182;26502;-80
2024/01/23 07:40:45;;;;;;;30.03;5.63;;;6.80;93.80;;;;;;781732;180;26504;-80
2024/01/23 07:43:12;;;;;;;22.70;3.93;;;6.70;94.10;;;;;;781931;184;27053;-79
2024/01/23 07:45:38;;;;;;;35.93;5.57;;;6.80;93.30;;;;;;775652;184;26520;-79
2024/01/23 07:48:05;;;;;;;31.30;5.27;;;6.90;93.50;;;;;;773198;184;26484;-79
2024/01/23 07:50:32;;;;;;;28.30;5.00;;;6.80;93.30;;;;;;766062;184;26516;-79
2024/01/23 07:52:58;;;;;;;25.80;3.97;;;6.90;93.30;;;;;;778831;183;26479;-78
2024/01/23 07:55:25;;;;;;;31.93;7.00;;;6.90;93.30;;;;;;780292;181;27013;-79
2024/01/23 07:57:52;;;;;;;33.23;5.30;;;6.90;93.50;;;;;;779750;183;26565;-79
2024/01/23 08:00:18;;;;;;;27.80;5.13;;;6.90;93.10;;;;;;775764;184;27354;-78
2024/01/23 08:02:45;;;;;;;20.23;5.07;;;6.80;93.90;;;;;;774276;183;26500;-76
2024/01/23 08:05:12;;;;;;;32.47;6.30;;;6.90;93.20;;;;;;774725;183;26624;-76
2024/01/23 08:07:41;;;;;;;29.17;5.53;;;6.90;93.00;;;;;;780864;183;26543;-79
2024/01/23 08:10:05;;;;;;;43.00;6.10;;;6.90;93.30;;;;;;778511;183;26470;-79
2024/01/23 08:12:32;;;;;;;35.77;6.17;;;6.90;93.10;;;;;;779160;180;26483;-78
2024/01/23 08:14:58;;;;;;;30.77;6.50;;;7.00;93.00;;;;;;775423;183;26473;-79
2024/01/23 08:17:26;;;;;;;34.63;5.90;;;7.00;93.20;;;;;;779997;184;26515;-79
2024/01/23 08:19:51;;;;;;;23.17;4.87;;;6.90;93.30;;;;;;777950;183;26465;-79
2024/01/23 08:22:18;;;;;;;32.57;6.50;;;7.00;93.20;;;;;;767227;187;27143;-78
2024/01/23 08:24:45;;;;;;;31.43;6.43;;;6.90;93.60;;;;;;779186;183;26511;-80
2024/01/23 08:27:11;;;;;;;27.43;5.37;;;7.00;93.30;;;;;;780260;184;26477;-80
2024/01/23 08:29:38;;;;;;;34.13;6.13;;;7.10;92.80;;;;;;764301;187;26502;-79
2024/01/23 08:32:05;;;;;;;32.60;5.40;;;7.10;92.60;;;;;;777990;183;26469;-79
2024/01/23 08:34:31;;;;;;;37.30;5.47;;;7.10;92.90;;;;;;786542;181;26473;-81
2024/01/23 08:36:58;;;;;;;33.77;6.17;;;7.10;92.70;;;;;;772325;182;26482;-79
2024/01/23 08:39:24;;;;;;;32.00;5.43;;;7.20;92.90;;;;;;783008;183;26469;-79
2024/01/23 08:41:53;;;;;;;36.97;6.47;;;7.20;92.50;;;;;;781336;184;26494;-79
2024/01/23 08:44:18;;;;;;;28.40;5.83;;;7.20;92.60;;;;;;779925;185;26482;-80
2024/01/23 08:46:45;;;;;;;34.73;6.83;;;7.20;93.00;;;;;;779962;181;26466;-79
2024/01/23 08:49:12;;;;;;;39.03;5.40;;;7.30;92.40;;;;;;773903;184;26559;-81
2024/01/23 08:51:38;;;;;;;36.43;6.17;;;7.30;92.60;;;;;;781822;182;26470;-79
2024/01/23 08:54:05;;;;;;;32.00;5.90;;;7.30;92.80;;;;;;781199;183;26503;-81
2024/01/23 08:56:32;;;;;;;25.23;5.00;;;7.30;92.80;;;;;;787061;180;26449;-81
2024/01/23 08:58:58;;;;;;;31.43;6.13;;;7.40;92.10;;;;;;782712;182;26446;-80
2024/01/23 09:01:26;;;;;;;33.47;6.40;;;7.50;92.00;;;;;;775409;181;26483;-78
2024/01/23 09:03:52;;;;;;;37.67;7.37;;;7.60;91.30;;;;;;783625;183;27055;-79
2024/01/23 09:06:19;;;;;;;35.60;6.90;;;7.70;91.90;;;;;;784098;180;26454;-81
2024/01/23 09:08:46;;;;;;;34.60;4.70;;;7.70;91.80;;;;;;782573;184;26466;-82
2024/01/23 09:11:12;;;;;;;31.23;7.43;;;7.60;92.70;;;;;;782720;184;27121;-78
2024/01/23 09:13:40;;;;;;;41.23;7.20;;;7.70;91.90;;;;;;781419;183;26469;-81
2024/01/23 09:16:06;;;;;;;35.03;6.17;;;7.80;91.50;;;;;;780992;183;26528;-79
2024/01/23 09:18:33;;;;;;;28.47;5.57;;;7.80;91.40;;;;;;783869;183;26474;-80
2024/01/23 09:21:02;;;;;;;38.53;7.10;;;7.90;91.30;;;;;;781012;183;26478;-80
2024/01/23 09:23:26;;;;;;;33.13;6.10;;;7.90;91.60;;;;;;781377;179;26496;-80
2024/01/23 09:25:53;;;;;;;39.83;6.70;;;8.00;91.90;;;;;;781114;181;26507;-79
2024/01/23 09:28:19;;;;;;;38.43;7.03;;;8.00;91.00;;;;;;783858;180;26491;-77
2024/01/23 09:30:46;;;;;;;33.53;6.43;;;8.10;90.80;;;;;;778743;183;27062;-80
2024/01/23 09:33:13;;;;;;;29.97;5.77;;;8.10;90.50;;;;;;780420;184;26455;-81
2024/01/23 09:35:40;;;;;;;31.17;5.43;;;8.20;90.80;;;;;;766579;188;27036;-79
2024/01/23 09:38:07;;;;;;;28.23;5.67;;;8.30;90.20;;;;;;775801;182;27180;-79
2024/01/23 09:40:33;;;;;;;37.77;6.57;;;8.30;90.30;;;;;;773722;181;26473;-80
2024/01/23 09:43:00;;;;;;;23.83;4.20;;;8.40;90.50;;;;;;773038;184;26490;-80
2024/01/23 09:45:28;;;;;;;27.33;5.57;;;8.50;90.10;;;;;;769496;187;26464;-81
2024/01/23 09:47:54;;;;;;;39.27;6.13;;;8.50;90.50;;;;;;780276;184;26492;-80
2024/01/23 09:50:21;;;;;;;47.10;6.50;;;8.60;89.90;;;;;;780932;180;26685;-80
2024/01/23 09:52:47;;;;;;;31.70;7.53;;;8.50;90.30;;;;;;787208;182;26433;-78
2024/01/23 09:55:14;;;;;;;36.47;7.03;;;8.60;90.30;;;;;;781840;184;26491;-80
2024/01/23 09:57:40;;;;;;;33.50;7.80;;;8.60;90.00;;;;;;781786;183;26502;-82
2024/01/23 10:00:11;;;;;;;33.43;5.83;;;8.70;89.50;;;;;;782442;184;26474;-81
2024/01/23 10:02:34;;;;;;;38.30;9.60;;;8.70;89.30;;;;;;778642;184;27685;-81
2024/01/23 10:05:01;;;;;;;29.23;7.47;;;8.70;88.80;;;;;;778858;184;26466;-79
2024/01/23 10:07:27;;;;;;;37.90;7.60;;;8.70;88.20;;;;;;782475;184;26496;-81
2024/01/23 10:09:55;;;;;;;26.23;5.53;;;8.80;88.50;;;;;;782841;182;26496;-81
2024/01/23 10:12:20;;;;;;;29.10;6.13;;;8.80;88.30;;;;;;777745;181;26473;-80
2024/01/23 10:14:47;;;;;;;21.17;4.73;;;8.80;88.80;;;;;;769782;183;26475;-81
2024/01/23 10:17:14;;;;;;;33.07;5.87;;;8.90;87.70;;;;;;768389;183;26491;-81
2024/01/23 10:19:40;;;;;;;31.90;6.87;;;8.90;88.10;;;;;;785071;183;26465;-80
2024/01/23 10:22:07;;;;;;;69.50;13.97;;;8.90;88.30;;;;;;781570;183;26494;-79
2024/01/23 10:24:33;;;;;;;50.83;9.03;;;9.10;88.20;;;;;;782070;183;26536;-80
2024/01/23 10:27:00;;;;;;;54.77;13.93;;;9.10;87.60;;;;;;777191;183;26489;-81
2024/01/23 10:29:27;;;;;;;34.37;9.20;;;9.20;86.60;;;;;;781215;178;26561;-81
2024/01/23 10:31:53;;;;;;;41.03;11.07;;;9.10;86.20;;;;;;776668;179;26496;-80
2024/01/23 10:34:20;;;;;;;60.20;15.07;;;9.20;86.30;;;;;;782238;183;26475;-80
2024/01/23 10:36:46;;;;;;;57.53;16.50;;;9.20;85.60;;;;;;780999;184;26514;-81
2024/01/23 10:39:13;;;;;;;54.63;14.50;;;9.30;87.00;;;;;;781198;178;26499;-78
2024/01/23 10:41:39;;;;;;;46.07;8.30;;;9.30;85.50;;;;;;779534;183;26510;-80
2024/01/23 10:44:06;;;;;;;41.10;8.23;;;9.30;86.00;;;;;;781232;182;26511;-81
2024/01/23 10:46:33;;;;;;;50.63;14.67;;;9.30;85.50;;;;;;767554;185;26455;-81
2024/01/23 10:49:02;;;;;;;38.37;8.20;;;9.40;84.90;;;;;;769164;184;26481;-80
2024/01/23 10:51:26;;;;;;;20.13;5.10;;;9.50;86.70;;;;;;783167;181;26502;-81
2024/01/23 10:53:57;;;;;;;28.47;6.67;;;9.80;82.70;;;;;;781777;183;26465;-80
2024/01/23 10:56:22;;;;;;;20.77;5.23;;;10.60;79.00;;;;;;782598;183;27057;-82
2024/01/23 10:58:48;;;;;;;67.30;18.83;;;11.60;76.80;;;;;;785723;180;26460;-81
2024/01/23 11:01:15;;;;;;;175.70;53.47;;;12.50;70.70;;;;;;784611;178;26481;-80
2024/01/23 11:03:42;;;;;;;84.10;29.47;;;12.70;68.30;;;;;;784659;183;26444;-79
2024/01/23 11:06:09;;;;;;;49.40;12.50;;;12.40;69.80;;;;;;785916;180;26473;-81
2024/01/23 11:08:37;;;;;;;118.50;37.53;;;12.70;67.90;;;;;;783567;180;26453;-82
2024/01/23 11:11:10;;;;;;;179.37;56.03;;;12.90;67.40;;;;;;784657;177;26468;-78
2024/01/23 11:13:39;;;;;;;146.53;46.80;;;13.10;65.80;;;;;;784427;177;26461;-81
2024/01/23 11:16:06;;;;;;;67.73;20.83;;;13.50;64.80;;;;;;782985;181;26510;-80
2024/01/23 11:18:33;;;;;;;45.33;11.30;;;13.30;65.10;;;;;;781325;184;26462;-80
2024/01/23 11:21:12;;;;;;;37.97;10.30;;;13.40;64.50;;;;;;783533;184;26502;-80
2024/01/23 11:23:41;;;;;;;62.17;17.70;;;13.00;64.20;;;;;;785134;182;26470;-82
2024/01/23 11:26:14;;;;;;;41.20;9.90;;;11.80;68.60;;;;;;784344;182;26484;-80
2024/01/23 11:28:39;;;;;;;42.90;8.00;;;11.60;70.90;;;;;;783954;182;26500;-80
2024/01/23 11:31:07;;;;;;;19.63;5.10;;;11.80;71.40;;;;;;783640;180;26474;-80
2024/01/23 11:33:34;;;;;;;113.00;32.40;;;11.10;71.00;;;;;;785713;180;28093;-80
2024/01/23 11:36:07;;;;;;;90.70;26.57;;;11.00;74.30;;;;;;783809;180;26477;-80
2024/01/23 11:38:41;;;;;;;69.10;21.50;;;11.80;74.00;;;;;;781382;184;26485;-81
2024/01/23 11:41:13;;;;;;;91.07;29.27;;;11.80;69.40;;;;;;782158;183;27081;-80
2024/01/23 11:43:39;;;;;;;54.27;17.77;;;11.60;70.20;;;;;;786885;182;26471;-80
2024/01/23 11:46:06;;;;;;;79.87;18.80;;;11.90;71.50;;;;;;768541;187;27037;-80
2024/01/23 11:48:33;;;;;;;159.43;47.43;;;11.00;71.50;;;;;;770649;185;26489;-79
2024/01/23 11:50:59;;;;;;;37.27;9.83;;;10.80;73.80;;;;;;767449;184;26520;-80
2024/01/23 11:53:26;;;;;;;35.30;9.77;;;10.30;74.30;;;;;;770830;183;26458;-79
2024/01/23 11:55:53;;;;;;;55.97;15.03;;;10.30;75.30;;;;;;778654;183;26488;-79
2024/01/23 11:58:20;;;;;;;60.33;16.90;;;10.50;76.10;;;;;;779518;183;26458;-81
2024/01/23 12:00:46;;;;;;;51.00;9.20;;;10.70;74.50;;;;;;781541;180;27049;-80
2024/01/23 12:03:20;;;;;;;54.40;14.07;;;11.00;76.10;;;;;;778987;182;26463;-80
2024/01/23 12:05:39;;;;;;;85.80;25.80;;;11.20;72.50;;;;;;771568;186;26468;-82
2024/01/23 12:08:06;;;;;;;102.63;31.10;;;10.90;73.40;;;;;;756309;184;26509;-78
2024/01/23 12:10:33;;;;;;;143.10;45.07;;;10.70;74.30;;;;;;780108;184;27714;-78
2024/01/23 12:12:59;;;;;;;161.57;46.03;;;10.40;74.70;;;;;;776469;184;26451;-80
2024/01/23 12:15:26;;;;;;;161.67;43.90;;;10.20;75.40;;;;;;780312;183;26652;-79
2024/01/23 12:17:53;;;;;;;116.63;34.20;;;10.20;76.50;;;;;;771897;186;26501;-77
2024/01/23 12:20:20;;;;;;;72.17;17.90;;;10.10;76.10;;;;;;781429;182;26504;-80
2024/01/23 12:22:47;;;;;;;76.03;20.47;;;10.10;78.60;;;;;;780502;184;26469;-78
2024/01/23 12:25:13;;;;;;;149.50;49.33;;;10.20;75.70;;;;;;782115;184;26487;-80
2024/01/23 12:27:40;;;;;;;97.37;27.60;;;10.40;76.40;;;;;;780993;180;26488;-79
2024/01/23 12:30:07;;;;;;;41.13;8.03;;;10.20;75.30;;;;;;775888;181;26476;-79
2024/01/23 12:32:33;;;;;;;36.37;9.17;;;10.20;77.60;;;;;;778898;184;26504;-78
2024/01/23 12:35:00;;;;;;;88.57;30.00;;;10.20;76.80;;;;;;767460;186;26500;-78
2024/01/23 12:37:30;;;;;;;56.97;15.60;;;10.20;76.90;;;;;;782489;183;26492;-79
2024/01/23 12:39:56;;;;;;;91.60;27.30;;;10.10;76.50;;;;;;781111;183;27067;-78
2024/01/23 12:42:22;;;;;;;106.63;32.27;;;10.00;77.70;;;;;;774685;183;26485;-79
2024/01/23 12:44:49;;;;;;;46.80;13.57;;;9.90;78.30;;;;;;768548;186;26602;-79
2024/01/23 12:47:16;;;;;;;92.27;25.10;;;10.00;79.50;;;;;;766464;185;26477;-79